Terminal Aerodrome Forecast
Issued by NWS Grand Forks, ND

Home | Current Version | Previous Version | Text Only | Print | Product List | Glossary On
Versions: 1 2 3 4 5 6 7 8 9 10 11 12 13 14 15 16
505
FTUS43 KFGF 171301 AAA
TAFGFK
TAF AMD
KGFK 171301Z 1713/1812 34009KT 1 1/2SM BR OVC002
      TEMPO 1713/1714 1/4SM FG
     FM171400 35009KT 5SM BR FEW002
     FM171500 34009KT P6SM SKC
     FM180300 26004KT P6SM SCT250=

USA.gov is the U.S. government's official web portal to all federal, state and local government web resources and services.